createdAt,value
2017-09-17T00:00:19.833Z,964.17
2017-09-17T00:01:19.728Z,964.21
2017-09-17T00:02:19.721Z,964.19
2017-09-17T00:03:19.716Z,964.17
2017-09-17T00:04:19.710Z,964.16
2017-09-17T00:05:19.704Z,964.19
2017-09-17T00:06:19.698Z,964.18
2017-09-17T00:07:19.693Z,964.14
2017-09-17T00:08:19.693Z,964.14
2017-09-17T00:09:19.683Z,964.11
2017-09-17T00:10:19.677Z,964.13
2017-09-17T00:11:19.670Z,964.1
2017-09-17T00:12:19.668Z,964.1
2017-09-17T00:13:19.659Z,964.11
2017-09-17T00:14:19.654Z,964.09
2017-09-17T00:15:19.648Z,964.09
2017-09-17T00:16:19.642Z,964.09
2017-09-17T00:17:19.736Z,964.1
2017-09-17T00:18:19.631Z,964.11
2017-09-17T00:19:19.625Z,964.12
2017-09-17T00:20:19.620Z,964.14
2017-09-17T00:21:19.613Z,964.13
2017-09-17T00:22:19.708Z,964.14
2017-09-17T00:23:19.603Z,964.16
2017-09-17T00:24:19.597Z,964.13
2017-09-17T00:25:19.591Z,964.14
2017-09-17T00:26:19.585Z,964.18
2017-09-17T00:27:19.578Z,964.14
2017-09-17T00:28:19.573Z,964.13
2017-09-17T00:29:19.568Z,964.15
2017-09-17T00:30:19.561Z,964.15
2017-09-17T00:31:19.556Z,964.14
2017-09-17T00:32:19.651Z,964.13
2017-09-17T00:33:19.544Z,964.1
2017-09-17T00:34:19.539Z,964.13
2017-09-17T00:35:19.534Z,964.12
2017-09-17T00:36:19.528Z,964.12
2017-09-17T00:37:19.621Z,964.14
2017-09-17T00:38:19.516Z,964.13
2017-09-17T00:39:19.510Z,964.1
2017-09-17T00:40:19.505Z,964.14
2017-09-17T00:41:19.499Z,964.12
2017-09-17T00:42:19.495Z,964.07
2017-09-17T00:43:19.489Z,964.1
2017-09-17T00:44:19.580Z,964.08
2017-09-17T00:45:19.476Z,964.12
2017-09-17T00:46:19.471Z,964.12
2017-09-17T00:47:19.464Z,964.13
2017-09-17T00:48:19.458Z,964.15
2017-09-17T00:49:19.452Z,964.1
2017-09-17T00:50:19.446Z,964.15
2017-09-17T00:51:19.440Z,964.14
2017-09-17T00:52:19.436Z,964.12
2017-09-17T00:53:19.531Z,964.16
2017-09-17T00:54:19.424Z,964.12
2017-09-17T00:55:19.419Z,964.13
2017-09-17T00:56:19.413Z,964.09
2017-09-17T00:57:19.408Z,964.12
2017-09-17T00:58:19.400Z,964.1
2017-09-17T00:59:19.395Z,964.09
2017-09-17T01:00:19.390Z,964.12
2017-09-17T01:01:19.384Z,964.13
2017-09-17T01:02:19.378Z,964.11
2017-09-17T01:03:19.372Z,964.12
2017-09-17T01:04:19.366Z,964.09
2017-09-17T01:05:19.361Z,964.04
2017-09-17T01:06:19.355Z,964.06
2017-09-17T01:07:19.449Z,964.09
2017-09-17T01:08:19.343Z,964.14
2017-09-17T01:09:19.338Z,964.1
2017-09-17T01:10:19.333Z,964.09
2017-09-17T01:11:19.476Z,964.11
2017-09-17T01:12:19.320Z,964.08
2017-09-17T01:13:19.314Z,964.06
2017-09-17T01:14:19.308Z,964.07
2017-09-17T01:15:19.302Z,964.09
2017-09-17T01:16:19.296Z,964.07
2017-09-17T01:17:19.290Z,964.02
2017-09-17T01:18:19.284Z,964.01
2017-09-17T01:19:19.280Z,963.99
2017-09-17T01:20:19.275Z,964.01
2017-09-17T01:21:19.268Z,964.01
2017-09-17T01:22:19.264Z,964
2017-09-17T01:23:19.257Z,964
2017-09-17T01:24:19.251Z,963.99
2017-09-17T01:25:19.246Z,963.95
2017-09-17T01:26:19.241Z,963.94
2017-09-17T01:27:19.233Z,963.95
2017-09-17T01:28:19.228Z,963.96
2017-09-17T01:29:19.222Z,963.98
2017-09-17T01:30:19.216Z,963.98
2017-09-17T01:31:19.209Z,963.98
2017-09-17T01:32:19.204Z,964
2017-09-17T01:33:19.199Z,963.99
2017-09-17T01:34:19.193Z,964.02
2017-09-17T01:35:19.187Z,964.05
2017-09-17T01:36:19.181Z,964.06
2017-09-17T01:37:19.176Z,964.05
2017-09-17T01:38:19.168Z,964.05
2017-09-17T01:39:19.164Z,964.04
2017-09-17T01:40:19.159Z,964.03
2017-09-17T01:41:19.152Z,964.04
2017-09-17T01:42:19.145Z,964.07
2017-09-17T01:43:19.141Z,964.03
2017-09-17T01:44:19.134Z,963.97
2017-09-17T01:45:19.129Z,963.99
2017-09-17T01:46:19.123Z,964.01
2017-09-17T01:47:19.117Z,964
2017-09-17T01:48:19.111Z,964.01
2017-09-17T01:49:19.105Z,963.99
2017-09-17T01:50:19.100Z,963.97
2017-09-17T01:51:19.194Z,964
2017-09-17T01:52:19.088Z,964.01
2017-09-17T01:53:19.082Z,964.01
2017-09-17T01:54:19.076Z,964.01
2017-09-17T01:55:19.071Z,964.05
2017-09-17T01:56:19.065Z,964.06
2017-09-17T01:57:19.059Z,964.02
2017-09-17T01:58:19.052Z,964.06
2017-09-17T01:59:19.153Z,964.05
2017-09-17T02:00:19.041Z,964.05
2017-09-17T02:01:19.037Z,964.08
2017-09-17T02:02:19.029Z,964.12
2017-09-17T02:03:19.124Z,964.12
2017-09-17T02:04:19.018Z,964.1
2017-09-17T02:05:19.013Z,964.14
2017-09-17T02:06:19.007Z,964.12
2017-09-17T02:07:19.000Z,964.08
2017-09-17T02:08:18.994Z,964.1
2017-09-17T02:09:19.088Z,964.08
2017-09-17T02:10:18.983Z,964.07
2017-09-17T02:11:18.977Z,964.05
2017-09-17T02:12:18.970Z,964.08
2017-09-17T02:13:18.965Z,964.07
2017-09-17T02:14:18.958Z,964.03
2017-09-17T02:15:18.955Z,964.02
2017-09-17T02:16:18.948Z,964.02
2017-09-17T02:17:18.942Z,964.01
2017-09-17T02:18:18.935Z,963.99
2017-09-17T02:19:18.929Z,964.01
2017-09-17T02:20:18.924Z,964.06
2017-09-17T02:21:18.917Z,964
2017-09-17T02:22:18.912Z,964.05
2017-09-17T02:23:18.906Z,964.04
2017-09-17T02:24:18.901Z,964.09
2017-09-17T02:25:18.893Z,964.08
2017-09-17T02:26:18.888Z,964.11
2017-09-17T02:27:18.883Z,964.16
2017-09-17T02:28:18.876Z,964.13
2017-09-17T02:29:18.870Z,964.17
2017-09-17T02:30:18.865Z,964.15
2017-09-17T02:31:18.860Z,964.17
2017-09-17T02:32:18.954Z,964.16
2017-09-17T02:33:18.846Z,964.18
2017-09-17T02:34:18.840Z,964.14
2017-09-17T02:35:18.836Z,964.19
2017-09-17T02:36:18.829Z,964.17
2017-09-17T02:37:18.823Z,964.14
2017-09-17T02:38:18.817Z,964.14
2017-09-17T02:39:18.811Z,964.12
2017-09-17T02:40:18.806Z,964.13
2017-09-17T02:41:18.800Z,964.1
2017-09-17T02:42:18.793Z,964.11
2017-09-17T02:43:18.790Z,964.09
2017-09-17T02:44:18.783Z,964.07
2017-09-17T02:45:18.776Z,964.14
2017-09-17T02:46:18.771Z,964.1
2017-09-17T02:47:18.763Z,964.09
2017-09-17T02:48:18.757Z,964.11
2017-09-17T02:49:18.760Z,964.09
2017-09-17T02:50:18.846Z,964.1
2017-09-17T02:51:18.741Z,964.1
2017-09-17T02:52:18.734Z,964.08
2017-09-17T02:53:18.728Z,964.13
2017-09-17T02:54:18.722Z,964.09
2017-09-17T02:55:18.718Z,964.08
2017-09-17T02:56:18.713Z,964.01
2017-09-17T02:57:18.707Z,964.02
2017-09-17T02:58:18.700Z,963.99
2017-09-17T02:59:18.694Z,964.01
2017-09-17T03:00:18.690Z,964.01
2017-09-17T03:01:18.684Z,963.99
2017-09-17T03:02:18.677Z,964.01
2017-09-17T03:03:18.670Z,964
2017-09-17T03:04:18.664Z,964.01
2017-09-17T03:05:18.658Z,964.03
2017-09-17T03:06:18.653Z,963.97
2017-09-17T03:07:18.647Z,964.03
2017-09-17T03:08:18.640Z,964.04
2017-09-17T03:09:18.635Z,964.02
2017-09-17T03:10:18.629Z,964
2017-09-17T03:11:18.623Z,964.05
2017-09-17T03:12:18.616Z,964.01
2017-09-17T03:13:18.611Z,964.06
2017-09-17T03:14:18.604Z,964.07
2017-09-17T03:15:18.599Z,964.07
2017-09-17T03:16:18.592Z,964.07
2017-09-17T03:17:18.586Z,964.08
2017-09-17T03:18:18.581Z,964.07
2017-09-17T03:19:18.675Z,964.07
2017-09-17T03:20:18.668Z,964.04
2017-09-17T03:21:18.563Z,964.01
2017-09-17T03:22:18.557Z,964.02
2017-09-17T03:23:18.552Z,963.99
2017-09-17T03:24:18.645Z,964
2017-09-17T03:25:18.539Z,964
2017-09-17T03:26:18.534Z,964.02
2017-09-17T03:27:18.527Z,963.98
2017-09-17T03:28:18.521Z,964
2017-09-17T03:29:18.515Z,964.01
2017-09-17T03:30:18.509Z,964.01
2017-09-17T03:31:18.502Z,964.03
2017-09-17T03:32:18.497Z,964
2017-09-17T03:33:18.493Z,964.02
2017-09-17T03:34:18.485Z,964.07
2017-09-17T03:35:18.478Z,964.02
2017-09-17T03:36:18.474Z,964.02
2017-09-17T03:37:18.468Z,964.07
2017-09-17T03:38:18.461Z,964.04
2017-09-17T03:39:18.454Z,964.05
2017-09-17T03:40:18.450Z,964.04
2017-09-17T03:41:18.445Z,964.07
2017-09-17T03:42:18.437Z,964.06
2017-09-17T03:43:18.432Z,964.06
2017-09-17T03:44:18.426Z,964.07
2017-09-17T03:45:18.520Z,964.08
2017-09-17T03:46:18.414Z,964.07
2017-09-17T03:47:18.408Z,964.03
2017-09-17T03:48:18.401Z,964.08
2017-09-17T03:49:18.394Z,964.07
2017-09-17T03:50:18.391Z,964.04
2017-09-17T03:51:18.385Z,964.04
2017-09-17T03:52:18.399Z,964.07
2017-09-17T03:53:18.370Z,964.08
2017-09-17T03:54:18.365Z,964.1
2017-09-17T03:55:18.360Z,964.05
2017-09-17T03:56:18.355Z,964.11
2017-09-17T03:57:18.346Z,964.07
2017-09-17T03:58:18.342Z,964.08
2017-09-17T03:59:18.436Z,964.06
2017-09-17T04:00:18.330Z,964.09
2017-09-17T04:01:18.322Z,964.06
2017-09-17T04:02:18.418Z,964.09
2017-09-17T04:03:18.311Z,964.08
2017-09-17T04:04:18.311Z,964.07
2017-09-17T04:05:18.299Z,964.09
2017-09-17T04:06:18.293Z,964.04
2017-09-17T04:07:18.287Z,964.12
2017-09-17T04:08:18.281Z,964.12
2017-09-17T04:09:18.275Z,964.07
2017-09-17T04:10:18.269Z,964.13
2017-09-17T04:11:18.263Z,964.16
2017-09-17T04:12:18.256Z,964.18
2017-09-17T04:13:18.252Z,964.19
2017-09-17T04:14:18.346Z,964.21
2017-09-17T04:15:18.238Z,964.21
2017-09-17T04:16:18.232Z,964.18
2017-09-17T04:17:18.329Z,964.23
2017-09-17T04:18:18.220Z,964.23
2017-09-17T04:19:18.215Z,964.22
2017-09-17T04:20:18.308Z,964.24
2017-09-17T04:21:18.204Z,964.26
2017-09-17T04:22:18.196Z,964.25
2017-09-17T04:23:18.190Z,964.27
2017-09-17T04:24:18.184Z,964.27
2017-09-17T04:25:18.179Z,964.28
2017-09-17T04:26:18.171Z,964.31
2017-09-17T04:27:18.166Z,964.28
2017-09-17T04:28:18.160Z,964.32
2017-09-17T04:29:18.255Z,964.32
2017-09-17T04:30:18.149Z,964.35
2017-09-17T04:31:18.143Z,964.32
2017-09-17T04:32:18.137Z,964.37
2017-09-17T04:33:18.131Z,964.38
2017-09-17T04:34:18.124Z,964.37
2017-09-17T04:35:18.120Z,964.38
2017-09-17T04:36:18.112Z,964.4
2017-09-17T04:37:18.105Z,964.4
2017-09-17T04:38:18.100Z,964.38
2017-09-17T04:39:18.095Z,964.4
2017-09-17T04:40:18.087Z,964.43
2017-09-17T04:41:18.081Z,964.45
2017-09-17T04:42:18.076Z,964.45
2017-09-17T04:43:18.071Z,964.47
2017-09-17T04:44:18.064Z,964.46
2017-09-17T04:45:18.057Z,964.48
2017-09-17T04:46:18.051Z,964.47
2017-09-17T04:47:18.045Z,964.46
2017-09-17T04:48:18.038Z,964.44
2017-09-17T04:49:18.033Z,964.48
2017-09-17T04:50:18.026Z,964.52
2017-09-17T04:51:18.020Z,964.51
2017-09-17T04:52:18.014Z,964.5
2017-09-17T04:53:18.008Z,964.52
2017-09-17T04:54:18.003Z,964.53
2017-09-17T04:55:17.995Z,964.53
2017-09-17T04:56:17.992Z,964.55
2017-09-17T04:57:17.984Z,964.52
2017-09-17T04:58:17.979Z,964.5
2017-09-17T04:59:17.971Z,964.52
2017-09-17T05:00:17.967Z,964.54
2017-09-17T05:01:17.961Z,964.56
2017-09-17T05:02:18.052Z,964.53
2017-09-17T05:03:17.947Z,964.57
2017-09-17T05:04:18.041Z,964.53
2017-09-17T05:05:17.937Z,964.49
2017-09-17T05:06:17.929Z,964.54
2017-09-17T05:07:17.923Z,964.53
2017-09-17T05:08:17.916Z,964.57
2017-09-17T05:09:17.913Z,964.56
2017-09-17T05:10:17.905Z,964.6
2017-09-17T05:11:17.897Z,964.59
2017-09-17T05:12:17.892Z,964.61
2017-09-17T05:13:17.886Z,964.62
2017-09-17T05:14:17.880Z,964.65
2017-09-17T05:15:17.873Z,964.65
2017-09-17T05:16:17.868Z,964.68
2017-09-17T05:17:17.861Z,964.68
2017-09-17T05:18:17.855Z,964.71
2017-09-17T05:19:17.851Z,964.74
2017-09-17T05:20:17.843Z,964.74
2017-09-17T05:21:17.837Z,964.75
2017-09-17T05:22:17.830Z,964.72
2017-09-17T05:23:17.825Z,964.72
2017-09-17T05:24:17.821Z,964.74
2017-09-17T05:25:17.811Z,964.71
2017-09-17T05:26:17.807Z,964.76
2017-09-17T05:27:17.801Z,964.78
2017-09-17T05:28:17.793Z,964.77
2017-09-17T05:29:17.788Z,964.81
2017-09-17T05:30:17.881Z,964.75
2017-09-17T05:31:17.875Z,964.79
2017-09-17T05:32:17.768Z,964.82
2017-09-17T05:33:17.763Z,964.85
2017-09-17T05:34:17.759Z,964.83
2017-09-17T05:35:17.750Z,964.86
2017-09-17T05:36:17.845Z,964.84
2017-09-17T05:37:17.758Z,964.9
2017-09-17T05:38:17.734Z,964.86
2017-09-17T05:39:17.730Z,964.85
2017-09-17T05:40:17.719Z,964.89
2017-09-17T05:41:17.713Z,964.91
2017-09-17T05:42:17.708Z,964.93
2017-09-17T05:43:17.702Z,964.94
2017-09-17T05:44:17.694Z,964.93
2017-09-17T05:45:17.690Z,964.94
2017-09-17T05:46:17.682Z,964.94
2017-09-17T05:47:17.681Z,964.94
2017-09-17T05:48:17.671Z,964.98
2017-09-17T05:49:17.664Z,964.97
2017-09-17T05:50:17.658Z,965
2017-09-17T05:51:17.751Z,965.02
2017-09-17T05:52:17.647Z,965.04
2017-09-17T05:53:17.641Z,965.02
2017-09-17T05:54:17.634Z,965.06
2017-09-17T05:55:17.628Z,965.07
2017-09-17T05:56:17.621Z,965.06
2017-09-17T05:57:17.615Z,965.08
2017-09-17T05:58:17.609Z,965.13
2017-09-17T05:59:17.703Z,965.09
2017-09-17T06:00:17.595Z,965.12
2017-09-17T06:01:17.590Z,965.13
2017-09-17T06:02:17.590Z,965.13
2017-09-17T06:03:17.677Z,965.11
2017-09-17T06:04:17.572Z,965.13
2017-09-17T06:05:17.566Z,965.09
2017-09-17T06:06:17.560Z,965.14
2017-09-17T06:07:17.654Z,965.19
2017-09-17T06:08:17.547Z,965.17
2017-09-17T06:09:17.542Z,965.16
2017-09-17T06:10:17.537Z,965.19
2017-09-17T06:11:17.530Z,965.21
2017-09-17T06:12:17.522Z,965.18
2017-09-17T06:13:17.515Z,965.22
2017-09-17T06:14:17.610Z,965.18
2017-09-17T06:15:17.503Z,965.19
2017-09-17T06:16:17.498Z,965.22
2017-09-17T06:17:17.492Z,965.2
2017-09-17T06:18:17.491Z,965.2
2017-09-17T06:19:17.481Z,965.17
2017-09-17T06:20:17.473Z,965.17
2017-09-17T06:21:17.468Z,965.15
2017-09-17T06:22:17.460Z,965.19
2017-09-17T06:23:17.454Z,965.16
2017-09-17T06:24:17.449Z,965.19
2017-09-17T06:25:17.442Z,965.18
2017-09-17T06:26:17.436Z,965.17
2017-09-17T06:27:17.430Z,965.19
2017-09-17T06:28:17.424Z,965.15
2017-09-17T06:29:17.417Z,965.18
2017-09-17T06:30:17.514Z,965.14
2017-09-17T06:31:17.406Z,965.13
2017-09-17T06:32:17.401Z,965.18
2017-09-17T06:33:17.493Z,965.13
2017-09-17T06:34:17.387Z,965.15
2017-09-17T06:35:17.381Z,965.18
2017-09-17T06:36:17.375Z,965.14
2017-09-17T06:37:17.369Z,965.16
2017-09-17T06:38:17.362Z,965.16
2017-09-17T06:39:17.357Z,965.16
2017-09-17T06:40:17.353Z,965.14
2017-09-17T06:41:17.343Z,965.12
2017-09-17T06:42:17.337Z,965.17
2017-09-17T06:43:17.330Z,965.16
2017-09-17T06:44:17.324Z,965.17
2017-09-17T06:45:17.319Z,965.18
2017-09-17T06:46:17.313Z,965.21
2017-09-17T06:47:17.308Z,965.17
2017-09-17T06:48:17.299Z,965.19
2017-09-17T06:49:17.295Z,965.21
2017-09-17T06:50:17.287Z,965.22
2017-09-17T06:51:17.282Z,965.23
2017-09-17T06:52:17.280Z,965.22
2017-09-17T06:53:17.270Z,965.21
2017-09-17T06:54:17.262Z,965.23
2017-09-17T06:55:17.258Z,965.18
2017-09-17T06:56:17.249Z,965.22
2017-09-17T06:57:17.244Z,965.24
2017-09-17T06:58:17.238Z,965.23
2017-09-17T06:59:17.333Z,965.2
2017-09-17T07:00:17.228Z,965.23
2017-09-17T07:01:17.221Z,965.24
2017-09-17T07:02:17.214Z,965.23
2017-09-17T07:03:17.208Z,965.24
2017-09-17T07:04:17.203Z,965.26
2017-09-17T07:05:17.196Z,965.25
2017-09-17T07:06:17.291Z,965.24
2017-09-17T07:07:17.183Z,965.27
2017-09-17T07:08:17.177Z,965.26
2017-09-17T07:09:17.171Z,965.27
2017-09-17T07:10:17.166Z,965.31
2017-09-17T07:11:17.258Z,965.34
2017-09-17T07:12:17.153Z,965.37
2017-09-17T07:13:17.147Z,965.31
2017-09-17T07:14:17.140Z,965.34
2017-09-17T07:15:17.134Z,965.36
2017-09-17T07:16:17.227Z,965.35
2017-09-17T07:17:17.123Z,965.3
2017-09-17T07:18:17.116Z,965.34
2017-09-17T07:19:17.109Z,965.33
2017-09-17T07:20:17.203Z,965.35
2017-09-17T07:21:17.097Z,965.31
2017-09-17T07:22:17.092Z,965.31
2017-09-17T07:23:17.087Z,965.28
2017-09-17T07:24:17.080Z,965.29
2017-09-17T07:25:17.072Z,965.29
2017-09-17T07:26:17.068Z,965.31
2017-09-17T07:27:17.062Z,965.33
2017-09-17T07:28:17.054Z,965.35
2017-09-17T07:29:17.049Z,965.31
2017-09-17T07:30:17.043Z,965.35
2017-09-17T07:31:17.036Z,965.34
2017-09-17T07:32:17.030Z,965.39
2017-09-17T07:33:17.024Z,965.35
2017-09-17T07:34:17.018Z,965.38
2017-09-17T07:35:17.013Z,965.35
2017-09-17T07:36:17.007Z,965.37
2017-09-17T07:37:17.000Z,965.37
2017-09-17T07:38:16.994Z,965.39
2017-09-17T07:39:16.988Z,965.34
2017-09-17T07:40:16.982Z,965.33
2017-09-17T07:41:16.977Z,965.32
2017-09-17T07:42:16.971Z,965.34
2017-09-17T07:43:16.964Z,965.33
2017-09-17T07:44:16.958Z,965.36
2017-09-17T07:45:16.953Z,965.37
2017-09-17T07:46:16.947Z,965.36
2017-09-17T07:47:16.941Z,965.38
2017-09-17T07:48:16.959Z,965.47
2017-09-17T07:49:16.929Z,965.43
2017-09-17T07:50:16.924Z,965.4
2017-09-17T07:51:16.917Z,965.46
2017-09-17T07:52:16.911Z,965.43
2017-09-17T07:53:16.905Z,965.43
2017-09-17T07:54:16.898Z,965.42
2017-09-17T07:55:17.044Z,965.43
2017-09-17T07:56:16.886Z,965.48
2017-09-17T07:57:16.882Z,965.48
2017-09-17T07:58:16.875Z,965.48
2017-09-17T07:59:16.869Z,965.49
2017-09-17T08:00:16.863Z,965.47
2017-09-17T08:01:16.857Z,965.52
2017-09-17T08:02:16.850Z,965.49
2017-09-17T08:03:16.844Z,965.49
2017-09-17T08:04:16.840Z,965.53
2017-09-17T08:05:16.832Z,965.58
2017-09-17T08:06:16.827Z,965.6
2017-09-17T08:07:16.820Z,965.53
2017-09-17T08:08:16.816Z,965.59
2017-09-17T08:09:16.808Z,965.58
2017-09-17T08:10:16.803Z,965.61
2017-09-17T08:11:16.798Z,965.57
2017-09-17T08:12:16.792Z,965.59
2017-09-17T08:13:16.784Z,965.6
2017-09-17T08:14:16.780Z,965.58
2017-09-17T08:15:16.775Z,965.62
2017-09-17T08:16:16.766Z,965.62
2017-09-17T08:17:16.762Z,965.6
2017-09-17T08:18:16.756Z,965.57
2017-09-17T08:19:16.750Z,965.56
2017-09-17T08:20:16.742Z,965.57
2017-09-17T08:21:16.739Z,965.6
2017-09-17T08:22:16.731Z,965.58
2017-09-17T08:23:16.724Z,965.59
2017-09-17T08:24:16.720Z,965.6
2017-09-17T08:25:16.714Z,965.58
2017-09-17T08:26:16.709Z,965.56
2017-09-17T08:27:16.701Z,965.62
2017-09-17T08:28:16.696Z,965.62
2017-09-17T08:29:16.691Z,965.59
2017-09-17T08:30:16.684Z,965.6
2017-09-17T08:31:16.679Z,965.58
2017-09-17T08:32:16.673Z,965.59
2017-09-17T08:33:16.667Z,965.61
2017-09-17T08:34:16.660Z,965.63
2017-09-17T08:35:16.655Z,965.58
2017-09-17T08:36:16.649Z,965.56
2017-09-17T08:37:16.642Z,965.56
2017-09-17T08:38:16.738Z,965.55
2017-09-17T08:39:16.637Z,965.61
2017-09-17T08:40:16.627Z,965.55
2017-09-17T08:41:16.621Z,965.56
2017-09-17T08:42:16.614Z,965.51
2017-09-17T08:43:16.708Z,965.52
2017-09-17T08:44:16.603Z,965.51
2017-09-17T08:45:16.595Z,965.54
2017-09-17T08:46:16.591Z,965.52
2017-09-17T08:47:16.584Z,965.54
2017-09-17T08:48:16.580Z,965.56
2017-09-17T08:49:16.571Z,965.53
2017-09-17T08:50:16.566Z,965.51
2017-09-17T08:51:16.563Z,965.52
2017-09-17T08:52:16.655Z,965.52
2017-09-17T08:53:16.549Z,965.51
2017-09-17T08:54:16.544Z,965.5
2017-09-17T08:55:16.688Z,965.52
2017-09-17T08:56:16.632Z,965.55
2017-09-17T08:57:16.525Z,965.54
2017-09-17T08:58:16.520Z,965.53
2017-09-17T08:59:16.513Z,965.51
2017-09-17T09:00:16.509Z,965.54
2017-09-17T09:01:16.503Z,965.54
2017-09-17T09:02:16.598Z,965.52
2017-09-17T09:03:16.491Z,965.52
2017-09-17T09:04:16.485Z,965.5
2017-09-17T09:05:16.480Z,965.52
2017-09-17T09:06:16.474Z,965.47
2017-09-17T09:07:16.467Z,965.48
2017-09-17T09:08:16.461Z,965.46
2017-09-17T09:09:16.457Z,965.47
2017-09-17T09:10:16.451Z,965.42
2017-09-17T09:11:16.444Z,965.4
2017-09-17T09:12:16.538Z,965.41
2017-09-17T09:13:16.433Z,965.44
2017-09-17T09:14:16.427Z,965.43
2017-09-17T09:15:16.422Z,965.44
2017-09-17T09:16:16.417Z,965.43
2017-09-17T09:17:16.411Z,965.44
2017-09-17T09:18:16.405Z,965.41
2017-09-17T09:19:16.399Z,965.44
2017-09-17T09:20:16.394Z,965.43
2017-09-17T09:21:16.388Z,965.44
2017-09-17T09:22:16.381Z,965.51
2017-09-17T09:23:16.376Z,965.49
2017-09-17T09:24:16.471Z,965.5
2017-09-17T09:25:16.363Z,965.52
2017-09-17T09:26:16.359Z,965.52
2017-09-17T09:27:16.352Z,965.48
2017-09-17T09:28:16.346Z,965.47
2017-09-17T09:29:16.339Z,965.48
2017-09-17T09:30:16.435Z,965.47
2017-09-17T09:31:16.330Z,965.45
2017-09-17T09:32:16.323Z,965.48
2017-09-17T09:33:16.317Z,965.44
2017-09-17T09:34:16.411Z,965.45
2017-09-17T09:35:16.307Z,965.46
2017-09-17T09:36:16.300Z,965.45
2017-09-17T09:37:16.295Z,965.44
2017-09-17T09:38:16.289Z,965.41
2017-09-17T09:39:16.283Z,965.42
2017-09-17T09:40:16.276Z,965.39
2017-09-17T09:41:16.272Z,965.39
2017-09-17T09:42:16.266Z,965.33
2017-09-17T09:43:16.261Z,965.35
2017-09-17T09:44:16.259Z,965.35
2017-09-17T09:45:16.248Z,965.3
2017-09-17T09:46:16.241Z,965.34
2017-09-17T09:47:16.237Z,965.32
2017-09-17T09:48:16.231Z,965.31
2017-09-17T09:49:16.224Z,965.3
2017-09-17T09:50:16.218Z,965.29
2017-09-17T09:51:16.212Z,965.28
2017-09-17T09:52:16.206Z,965.25
2017-09-17T09:53:16.202Z,965.27
2017-09-17T09:54:16.296Z,965.25
2017-09-17T09:55:16.190Z,965.23
2017-09-17T09:56:16.283Z,965.25
2017-09-17T09:57:16.178Z,965.22
2017-09-17T09:58:16.173Z,965.22
2017-09-17T09:59:16.166Z,965.18
2017-09-17T10:00:16.161Z,965.2
2017-09-17T10:01:16.157Z,965.17
2017-09-17T10:02:16.150Z,965.13
2017-09-17T10:03:16.145Z,965.18
2017-09-17T10:04:16.139Z,965.14
2017-09-17T10:05:16.134Z,965.14
2017-09-17T10:06:16.126Z,965.11
2017-09-17T10:07:16.121Z,965.09
2017-09-17T10:08:16.116Z,965.09
2017-09-17T10:09:16.109Z,965.09
2017-09-17T10:10:16.103Z,965.05
2017-09-17T10:11:16.128Z,965.06
2017-09-17T10:12:16.199Z,965.09
2017-09-17T10:13:16.085Z,965.04
2017-09-17T10:14:16.082Z,965.05
2017-09-17T10:15:16.074Z,965.07
2017-09-17T10:16:16.069Z,965.06
2017-09-17T10:17:16.063Z,965.09
2017-09-17T10:18:16.159Z,965.04
2017-09-17T10:19:16.058Z,965.04
2017-09-17T10:20:16.147Z,964.98
2017-09-17T10:21:16.040Z,964.98
2017-09-17T10:22:16.035Z,964.97
2017-09-17T10:23:16.029Z,964.95
2017-09-17T10:24:16.023Z,964.93
2017-09-17T10:25:16.018Z,964.9
2017-09-17T10:26:16.013Z,964.91
2017-09-17T10:27:16.006Z,964.91
2017-09-17T10:28:16.001Z,964.87
2017-09-17T10:29:15.995Z,964.88
2017-09-17T10:30:15.994Z,964.89
2017-09-17T10:31:15.982Z,964.86
2017-09-17T10:32:15.978Z,964.85
2017-09-17T10:33:15.973Z,964.82
2017-09-17T10:34:15.967Z,964.86
2017-09-17T10:35:15.959Z,964.84
2017-09-17T10:36:15.955Z,964.77
2017-09-17T10:37:16.050Z,964.84
2017-09-17T10:38:15.945Z,964.82
2017-09-17T10:39:15.938Z,964.82
2017-09-17T10:40:15.933Z,964.81
2017-09-17T10:41:15.927Z,964.8
2017-09-17T10:42:15.919Z,964.77
2017-09-17T10:43:15.915Z,964.79
2017-09-17T10:44:15.939Z,964.75
2017-09-17T10:45:15.904Z,964.77
2017-09-17T10:46:15.897Z,964.72
2017-09-17T10:47:15.893Z,964.74
2017-09-17T10:48:15.887Z,964.74
2017-09-17T10:49:15.882Z,964.71
2017-09-17T10:50:15.875Z,964.72
2017-09-17T10:51:15.870Z,964.73
2017-09-17T10:52:15.865Z,964.71
2017-09-17T10:53:15.860Z,964.67
2017-09-17T10:54:15.954Z,964.68
2017-09-17T10:55:15.848Z,964.71
2017-09-17T10:56:15.843Z,964.67
2017-09-17T10:57:15.835Z,964.7
2017-09-17T10:58:15.834Z,964.67
2017-09-17T10:59:15.926Z,964.66
2017-09-17T11:00:15.819Z,964.67
2017-09-17T11:01:15.812Z,964.71
2017-09-17T11:02:15.808Z,964.67
2017-09-17T11:03:15.804Z,964.67
2017-09-17T11:04:15.796Z,964.72
2017-09-17T11:05:15.792Z,964.7
2017-09-17T11:06:15.786Z,964.72
2017-09-17T11:07:15.780Z,964.72
2017-09-17T11:08:15.774Z,964.73
2017-09-17T11:09:15.767Z,964.73
2017-09-17T11:10:15.762Z,964.72
2017-09-17T11:11:15.757Z,964.7
2017-09-17T11:12:15.752Z,964.68
2017-09-17T11:13:15.747Z,964.68
2017-09-17T11:14:15.740Z,964.61
2017-09-17T11:15:15.735Z,964.62
2017-09-17T11:16:15.729Z,964.66
2017-09-17T11:17:15.724Z,964.58
2017-09-17T11:18:15.719Z,964.65
2017-09-17T11:19:15.711Z,964.59
2017-09-17T11:20:15.706Z,964.62
2017-09-17T11:21:15.702Z,964.59
2017-09-17T11:22:15.696Z,964.6
2017-09-17T11:23:15.690Z,964.57
2017-09-17T11:24:15.684Z,964.57
2017-09-17T11:25:15.687Z,964.58
2017-09-17T11:26:15.673Z,964.58
2017-09-17T11:27:15.668Z,964.59
2017-09-17T11:28:15.662Z,964.58
2017-09-17T11:29:15.657Z,964.55
2017-09-17T11:30:15.650Z,964.51
2017-09-17T11:31:15.645Z,964.51
2017-09-17T11:32:15.641Z,964.47
2017-09-17T11:33:15.734Z,964.47
2017-09-17T11:34:15.628Z,964.45
2017-09-17T11:35:15.622Z,964.46
2017-09-17T11:36:15.618Z,964.44
2017-09-17T11:37:15.612Z,964.43
2017-09-17T11:38:15.610Z,964.44
2017-09-17T11:39:15.705Z,964.42
2017-09-17T11:40:15.595Z,964.4
2017-09-17T11:41:15.690Z,964.41
2017-09-17T11:42:15.584Z,964.41
2017-09-17T11:43:15.578Z,964.4
2017-09-17T11:44:15.573Z,964.39
2017-09-17T11:45:15.568Z,964.4
2017-09-17T11:46:15.562Z,964.41
2017-09-17T11:47:15.557Z,964.38
2017-09-17T11:48:15.652Z,964.37
2017-09-17T11:49:15.547Z,964.39
2017-09-17T11:50:15.540Z,964.35
2017-09-17T11:51:15.534Z,964.38
2017-09-17T11:52:15.528Z,964.39
2017-09-17T11:53:15.524Z,964.37
2017-09-17T11:54:15.518Z,964.34
2017-09-17T11:55:15.512Z,964.34
2017-09-17T11:56:15.506Z,964.41
2017-09-17T11:57:15.501Z,964.39
2017-09-17T11:58:15.496Z,964.38
2017-09-17T11:59:15.491Z,964.4
2017-09-17T12:00:15.486Z,964.35
2017-09-17T12:01:15.480Z,964.37
2017-09-17T12:02:15.475Z,964.35
2017-09-17T12:03:15.471Z,964.3
2017-09-17T12:04:15.463Z,964.32
2017-09-17T12:05:15.458Z,964.29
2017-09-17T12:06:15.451Z,964.3
2017-09-17T12:07:15.447Z,964.25
2017-09-17T12:08:15.440Z,964.19
2017-09-17T12:09:15.436Z,964.19
2017-09-17T12:10:15.429Z,964.19
2017-09-17T12:11:15.425Z,964.19
2017-09-17T12:12:15.424Z,964.2
2017-09-17T12:13:15.413Z,964.17
2017-09-17T12:14:15.407Z,964.11
2017-09-17T12:15:15.402Z,964.13
2017-09-17T12:16:15.398Z,964.12
2017-09-17T12:17:15.390Z,964.09
2017-09-17T12:18:15.387Z,964.06
2017-09-17T12:19:15.381Z,964.07
2017-09-17T12:20:15.375Z,964.07
2017-09-17T12:21:15.370Z,964.08
2017-09-17T12:22:15.365Z,964.03
2017-09-17T12:23:15.359Z,964.04
2017-09-17T12:24:15.353Z,964.04
2017-09-17T12:25:15.349Z,964.03
2017-09-17T12:26:15.344Z,964.02
2017-09-17T12:27:15.339Z,963.97
2017-09-17T12:28:15.332Z,963.99
2017-09-17T12:29:15.327Z,963.98
2017-09-17T12:30:15.322Z,963.98
2017-09-17T12:31:15.317Z,963.97